createdAt,value
2022-09-03T00:01:19.434Z,1.20
2022-09-03T00:03:53.749Z,1.20
2022-09-03T00:06:26.334Z,1.00
2022-09-03T00:09:00.262Z,1.00
2022-09-03T00:11:34.472Z,0.90
2022-09-03T00:14:08.462Z,1.07
2022-09-03T00:16:46.365Z,0.93
2022-09-03T00:19:18.577Z,1.07
2022-09-03T00:21:50.512Z,1.00
2022-09-03T00:24:24.089Z,1.00
2022-09-03T00:26:58.664Z,1.10
2022-09-03T00:29:34.286Z,1.33
2022-09-03T00:32:09.233Z,1.03
2022-09-03T00:34:41.894Z,1.03
2022-09-03T00:37:14.320Z,0.90
2022-09-03T00:39:45.265Z,0.97
2022-09-03T00:42:29.612Z,1.10
2022-09-03T00:45:12.253Z,1.20
2022-09-03T00:47:53.740Z,1.13
2022-09-03T00:50:32.682Z,1.57
2022-09-03T00:53:08.206Z,1.30
2022-09-03T00:55:47.809Z,1.60
2022-09-03T00:58:33.082Z,1.27
2022-09-03T01:01:06.586Z,1.10
2022-09-03T01:03:43.779Z,1.13
2022-09-03T01:06:20.260Z,1.10
2022-09-03T01:09:01.512Z,1.27
2022-09-03T01:11:40.244Z,1.07
2022-09-03T01:14:24.584Z,1.50
2022-09-03T01:17:00.393Z,1.20
2022-09-03T01:19:58.477Z,1.27
2022-09-03T01:22:54.410Z,1.20
2022-09-03T01:25:34.170Z,1.20
2022-09-03T01:28:20.842Z,1.57
2022-09-03T01:30:57.336Z,1.33
2022-09-03T01:33:31.789Z,1.40
2022-09-03T01:36:10.370Z,1.50
2022-09-03T01:38:46.670Z,1.33
2022-09-03T01:41:42.991Z,1.30
2022-09-03T01:44:21.326Z,1.20
2022-09-03T01:46:56.508Z,1.23
2022-09-03T01:49:31.441Z,0.90
2022-09-03T01:52:06.757Z,0.93
2022-09-03T01:54:50.818Z,1.10
2022-09-03T01:57:57.810Z,1.00
2022-09-03T02:00:32.200Z,0.90
2022-09-03T02:03:05.780Z,1.20
2022-09-03T02:05:35.388Z,1.20
2022-09-03T02:08:06.918Z,1.00
2022-09-03T02:10:41.584Z,0.80
2022-09-03T02:13:13.249Z,1.10
2022-09-03T02:15:47.297Z,1.03
2022-09-03T02:18:20.015Z,0.93
2022-09-03T02:20:49.108Z,0.90
2022-09-03T02:23:18.033Z,1.00
2022-09-03T02:25:58.156Z,1.13
2022-09-03T02:28:28.233Z,1.03
2022-09-03T02:30:58.494Z,1.37
2022-09-03T02:33:26.932Z,1.17
2022-09-03T02:35:55.623Z,1.00
2022-09-03T02:38:26.586Z,1.10
2022-09-03T02:40:56.283Z,0.90
2022-09-03T02:43:28.757Z,0.87
2022-09-03T02:46:03.592Z,1.00
2022-09-03T02:48:32.131Z,1.10
2022-09-03T02:51:00.433Z,0.90
2022-09-03T02:53:29.761Z,1.20
2022-09-03T02:56:01.141Z,1.30
2022-09-03T02:58:31.684Z,1.10
2022-09-03T03:01:01.398Z,1.20
2022-09-03T03:03:30.083Z,0.90
2022-09-03T03:06:01.981Z,1.10
2022-09-03T03:08:32.327Z,1.93
2022-09-03T03:11:01.116Z,1.17
2022-09-03T03:13:31.361Z,1.30
2022-09-03T03:16:02.866Z,1.30
2022-09-03T03:18:31.273Z,1.20
2022-09-03T03:21:04.680Z,1.33
2022-09-03T03:23:33.606Z,1.30
2022-09-03T03:26:03.120Z,1.10
2022-09-03T03:28:34.457Z,1.20
2022-09-03T03:31:08.881Z,1.23
2022-09-03T03:33:37.756Z,1.27
2022-09-03T03:36:08.173Z,1.20
2022-09-03T03:38:36.850Z,1.40
2022-09-03T03:41:09.296Z,1.40
2022-09-03T03:43:37.526Z,1.50
2022-09-03T03:46:07.564Z,1.20
2022-09-03T03:48:36.575Z,1.20
2022-09-03T03:51:07.581Z,1.30
2022-09-03T03:53:36.954Z,1.13
2022-09-03T03:56:08.247Z,1.30
2022-09-03T03:58:37.453Z,1.40
2022-09-03T04:01:08.859Z,1.00
2022-09-03T04:03:38.145Z,1.00
2022-09-03T04:06:07.475Z,1.00
2022-09-03T04:08:37.524Z,1.00
2022-09-03T04:11:08.393Z,1.10
2022-09-03T04:13:38.837Z,1.10
2022-09-03T04:16:10.659Z,0.93
2022-09-03T04:18:40.328Z,0.90
2022-09-03T04:21:10.856Z,0.90
2022-09-03T04:23:41.161Z,1.33
2022-09-03T04:26:11.198Z,1.00
2022-09-03T04:28:40.262Z,0.90
2022-09-03T04:31:12.031Z,1.10
2022-09-03T04:33:41.092Z,0.90
2022-09-03T04:36:11.386Z,0.90
2022-09-03T04:38:41.273Z,0.80
2022-09-03T04:41:12.676Z,1.13
2022-09-03T04:43:42.846Z,1.00
2022-09-03T04:46:17.645Z,1.00
2022-09-03T04:48:49.998Z,0.90
2022-09-03T04:51:20.946Z,0.87
2022-09-03T04:53:54.262Z,0.87
2022-09-03T04:56:25.334Z,0.90
2022-09-03T04:58:57.261Z,0.90
2022-09-03T05:01:28.863Z,1.00
2022-09-03T05:03:58.112Z,0.90
2022-09-03T05:06:27.129Z,0.90
2022-09-03T05:08:56.366Z,0.63
2022-09-03T05:11:25.540Z,0.70
2022-09-03T05:13:56.621Z,1.03
2022-09-03T05:16:28.326Z,0.67
2022-09-03T05:18:59.872Z,0.90
2022-09-03T05:21:29.014Z,0.80
2022-09-03T05:23:57.314Z,0.80
2022-09-03T05:26:27.106Z,0.60
2022-09-03T05:28:57.226Z,0.70
2022-09-03T05:31:28.961Z,0.60
2022-09-03T05:33:59.724Z,0.77
2022-09-03T05:36:30.215Z,0.70
2022-09-03T05:39:00.169Z,0.60
2022-09-03T05:41:29.858Z,0.70
2022-09-03T05:43:59.704Z,0.80
2022-09-03T05:46:32.679Z,0.70
2022-09-03T05:49:02.470Z,0.80
2022-09-03T05:51:31.623Z,0.70
2022-09-03T05:54:00.186Z,0.60
2022-09-03T05:56:31.144Z,0.70
2022-09-03T05:59:01.967Z,0.60
2022-09-03T06:01:33.677Z,0.70
2022-09-03T06:04:03.406Z,0.87
2022-09-03T06:06:33.934Z,1.53
2022-09-03T06:09:04.847Z,0.73
2022-09-03T06:11:34.883Z,0.87
2022-09-03T06:14:06.270Z,1.00
2022-09-03T06:16:38.957Z,1.10
2022-09-03T06:19:09.735Z,0.70
2022-09-03T06:21:40.410Z,0.70
2022-09-03T06:24:08.845Z,0.70
2022-09-03T06:26:37.822Z,1.03
2022-09-03T06:29:07.047Z,0.97
2022-09-03T06:31:36.933Z,0.70
2022-09-03T06:34:06.265Z,0.70
2022-09-03T06:36:34.937Z,0.80
2022-09-03T06:39:03.261Z,0.80
2022-09-03T06:41:35.741Z,0.80
2022-09-03T06:44:06.027Z,0.80
2022-09-03T06:46:39.178Z,0.70
2022-09-03T06:49:08.508Z,0.60
2022-09-03T06:51:37.611Z,0.90
2022-09-03T06:54:07.868Z,1.10
2022-09-03T06:56:40.632Z,0.90
2022-09-03T06:59:11.098Z,1.00
2022-09-03T07:01:43.965Z,0.70
2022-09-03T07:04:16.523Z,0.90
2022-09-03T07:06:45.359Z,0.70
2022-09-03T07:09:15.601Z,0.80
2022-09-03T07:11:48.301Z,0.70
2022-09-03T07:14:18.540Z,0.87
2022-09-03T07:16:48.975Z,0.80
2022-09-03T07:19:17.715Z,0.70
2022-09-03T07:21:50.750Z,0.80
2022-09-03T07:24:22.234Z,0.90
2022-09-03T07:26:51.307Z,0.90
2022-09-03T07:29:21.571Z,0.60
2022-09-03T07:31:53.485Z,0.80
2022-09-03T07:34:24.276Z,0.70
2022-09-03T07:36:54.726Z,0.67
2022-09-03T07:39:23.046Z,0.70
2022-09-03T07:41:51.321Z,0.60
2022-09-03T07:44:21.017Z,0.50
2022-09-03T07:46:52.221Z,0.63
2022-09-03T07:49:22.270Z,0.70
2022-09-03T07:51:54.542Z,0.63
2022-09-03T07:54:24.114Z,0.50
2022-09-03T07:56:52.578Z,0.70
2022-09-03T07:59:23.148Z,0.60
2022-09-03T08:01:53.222Z,0.80
2022-09-03T08:04:22.108Z,0.80
2022-09-03T08:06:50.458Z,0.60
2022-09-03T08:09:18.720Z,0.60
2022-09-03T08:11:46.855Z,0.50
2022-09-03T08:14:16.742Z,0.50
2022-09-03T08:16:48.262Z,0.60
2022-09-03T08:19:19.515Z,0.70
2022-09-03T08:21:47.964Z,0.70
2022-09-03T08:24:19.218Z,1.20
2022-09-03T08:26:52.030Z,0.80
2022-09-03T08:29:21.457Z,0.50
2022-09-03T08:31:50.274Z,0.50
2022-09-03T08:34:20.463Z,0.60
2022-09-03T08:36:48.995Z,0.53
2022-09-03T08:39:17.746Z,0.60
2022-09-03T08:42:14.859Z,0.70
2022-09-03T08:44:48.242Z,0.67
2022-09-03T08:47:22.140Z,0.60
2022-09-03T08:49:56.490Z,0.70
2022-09-03T08:52:30.113Z,0.50
2022-09-03T08:55:05.638Z,0.70
2022-09-03T08:57:41.669Z,0.50
2022-09-03T09:00:11.111Z,0.40
2022-09-03T09:02:49.924Z,0.63
2022-09-03T09:05:25.841Z,0.60
2022-09-03T09:08:05.096Z,0.70
2022-09-03T09:10:39.544Z,0.63
2022-09-03T09:13:17.434Z,0.70
2022-09-03T09:15:55.457Z,0.53
2022-09-03T09:18:34.711Z,0.60
2022-09-03T09:21:11.032Z,0.50
2022-09-03T09:23:45.290Z,0.70
2022-09-03T09:26:17.342Z,0.70
2022-09-03T09:28:48.074Z,0.70
2022-09-03T09:31:20.320Z,0.60
2022-09-03T09:33:49.273Z,0.60
2022-09-03T09:36:19.969Z,0.50
2022-09-03T09:38:48.631Z,0.63
2022-09-03T09:41:19.442Z,0.53
2022-09-03T09:43:49.037Z,0.60
2022-09-03T09:46:22.575Z,0.90
2022-09-03T09:48:53.716Z,0.70
2022-09-03T09:51:25.742Z,0.70
2022-09-03T09:54:03.508Z,0.70
2022-09-03T09:56:32.333Z,0.57
2022-09-03T09:59:08.461Z,0.83
2022-09-03T10:01:39.195Z,1.00
2022-09-03T10:04:12.431Z,0.70
2022-09-03T10:06:58.429Z,0.70
2022-09-03T10:09:31.619Z,0.67
2022-09-03T10:12:14.471Z,0.70
2022-09-03T10:14:48.728Z,0.67
2022-09-03T10:17:24.925Z,0.83
2022-09-03T10:20:33.975Z,0.50
2022-09-03T10:23:13.240Z,0.60
2022-09-03T10:25:53.569Z,0.80
2022-09-03T10:28:24.646Z,0.60
2022-09-03T10:31:32.094Z,0.70
2022-09-03T10:34:08.021Z,0.80
2022-09-03T10:36:41.048Z,0.70
2022-09-03T10:39:18.776Z,0.73
2022-09-03T10:42:03.979Z,0.60
2022-09-03T10:44:48.809Z,0.80
2022-09-03T10:47:40.734Z,0.60
2022-09-03T10:50:17.545Z,0.50
2022-09-03T10:53:07.108Z,0.40
2022-09-03T10:55:45.641Z,0.90
2022-09-03T10:58:33.018Z,0.57
2022-09-03T11:01:06.010Z,0.60
2022-09-03T11:03:50.208Z,0.50
2022-09-03T11:06:24.905Z,0.70
2022-09-03T11:09:02.105Z,0.77
2022-09-03T11:11:39.389Z,0.60
2022-09-03T11:14:10.809Z,0.70
2022-09-03T11:16:43.202Z,0.70
2022-09-03T11:19:15.886Z,0.60
2022-09-03T11:21:44.957Z,0.50
2022-09-03T11:24:18.800Z,0.70
2022-09-03T11:26:54.404Z,0.57
2022-09-03T11:29:31.166Z,0.80
2022-09-03T11:32:03.373Z,0.70
2022-09-03T11:34:34.027Z,0.60
2022-09-03T11:37:24.342Z,0.70
2022-09-03T11:40:00.917Z,0.80
2022-09-03T11:42:34.187Z,0.50
2022-09-03T11:45:24.669Z,0.60
2022-09-03T11:47:54.232Z,1.00
2022-09-03T11:50:25.738Z,0.50
2022-09-03T11:52:57.159Z,0.57
2022-09-03T11:55:38.201Z,0.53
2022-09-03T11:58:22.915Z,0.50
2022-09-03T12:00:55.159Z,0.70
2022-09-03T12:03:28.898Z,0.53
2022-09-03T12:06:19.999Z,0.50
2022-09-03T12:09:14.835Z,0.50
2022-09-03T12:11:54.913Z,0.50
2022-09-03T12:14:32.261Z,0.60
2022-09-03T12:17:22.543Z,0.50
2022-09-03T12:19:53.917Z,0.50
2022-09-03T12:22:24.944Z,0.43
2022-09-03T12:24:53.940Z,0.50
2022-09-03T12:27:24.755Z,0.60
2022-09-03T12:30:00.668Z,0.53
2022-09-03T12:32:32.460Z,0.40
2022-09-03T12:35:13.266Z,0.70
2022-09-03T12:40:33.777Z,1.07
2022-09-03T12:46:13.262Z,0.70
2022-09-03T12:51:52.376Z,0.70
2022-09-03T12:54:23.398Z,0.60
2022-09-03T12:56:56.249Z,0.60
2022-09-03T12:59:27.892Z,0.60
2022-09-03T13:02:02.005Z,0.67
2022-09-03T13:04:33.533Z,0.90
2022-09-03T13:07:05.226Z,0.70
2022-09-03T13:09:38.054Z,0.40
2022-09-03T13:12:06.730Z,0.60
2022-09-03T13:14:45.149Z,0.50
2022-09-03T13:17:33.050Z,0.60
2022-09-03T13:20:18.493Z,0.60
2022-09-03T13:22:59.562Z,0.53
2022-09-03T13:25:35.148Z,0.50
2022-09-03T13:28:15.465Z,0.60
2022-09-03T13:30:54.772Z,0.60
2022-09-03T13:33:29.678Z,0.50
2022-09-03T13:36:04.353Z,0.53
2022-09-03T13:38:38.476Z,0.57
2022-09-03T13:41:20.095Z,0.60
2022-09-03T13:43:54.906Z,0.40
2022-09-03T13:46:31.524Z,0.40
2022-09-03T13:49:27.829Z,0.60
2022-09-03T13:52:02.899Z,0.60
2022-09-03T13:54:48.723Z,0.40
2022-09-03T13:57:31.759Z,0.70
2022-09-03T14:00:04.686Z,0.57
2022-09-03T14:02:44.985Z,0.60
2022-09-03T14:05:20.857Z,0.50
2022-09-03T14:08:02.377Z,0.60
2022-09-03T14:10:45.768Z,0.60
2022-09-03T14:13:23.896Z,0.63
2022-09-03T14:15:59.185Z,0.50
2022-09-03T14:18:41.246Z,0.50
2022-09-03T14:21:17.297Z,0.57
2022-09-03T14:23:50.317Z,0.50
2022-09-03T14:26:37.862Z,0.50
2022-09-03T14:29:17.401Z,0.80
2022-09-03T14:32:09.686Z,0.80
2022-09-03T14:34:49.810Z,0.50
2022-09-03T14:37:35.677Z,0.97
2022-09-03T14:40:14.257Z,0.87
2022-09-03T14:43:01.071Z,0.50
2022-09-03T14:45:50.417Z,0.57
2022-09-03T14:48:46.974Z,0.70
2022-09-03T14:51:32.950Z,0.60
2022-09-03T14:54:21.588Z,0.67
2022-09-03T14:56:56.048Z,0.60
2022-09-03T14:59:48.657Z,0.87
2022-09-03T15:02:55.517Z,0.67
2022-09-03T15:05:43.165Z,0.50
2022-09-03T15:08:19.106Z,0.80
2022-09-03T15:10:56.657Z,0.60
2022-09-03T15:13:28.974Z,0.60
2022-09-03T15:16:10.138Z,0.70
2022-09-03T15:18:59.046Z,0.60
2022-09-03T15:21:42.667Z,0.70
2022-09-03T15:24:24.386Z,0.50
2022-09-03T15:27:12.023Z,0.60
2022-09-03T15:29:52.164Z,0.70
2022-09-03T15:32:33.338Z,0.60
2022-09-03T15:35:07.169Z,0.70
2022-09-03T15:37:40.321Z,0.70
2022-09-03T15:40:18.037Z,0.70
2022-09-03T15:42:51.723Z,0.60
2022-09-03T15:45:33.192Z,0.60
2022-09-03T15:48:11.206Z,0.60
2022-09-03T15:50:53.102Z,0.60
2022-09-03T15:53:31.870Z,0.70
2022-09-03T15:56:14.078Z,0.90
2022-09-03T15:58:51.722Z,0.77
2022-09-03T16:01:32.855Z,0.50
2022-09-03T16:04:11.182Z,0.73
2022-09-03T16:06:50.778Z,0.70
2022-09-03T16:09:44.652Z,0.60
2022-09-03T16:12:22.249Z,0.70
2022-09-03T16:14:59.514Z,0.70
2022-09-03T16:17:32.750Z,0.80
2022-09-03T16:20:06.705Z,0.80
2022-09-03T16:22:44.669Z,0.90
2022-09-03T16:25:18.649Z,0.73
2022-09-03T16:28:00.641Z,0.60
2022-09-03T16:30:48.661Z,0.80
2022-09-03T16:33:24.909Z,0.70
2022-09-03T16:36:03.601Z,0.77
2022-09-03T16:38:40.128Z,0.73
2022-09-03T16:41:21.593Z,1.00
2022-09-03T16:43:59.209Z,0.80
2022-09-03T16:46:37.130Z,0.87
2022-09-03T16:49:22.035Z,0.87
2022-09-03T16:51:57.207Z,0.70
2022-09-03T16:54:39.888Z,0.93
2022-09-03T16:57:19.861Z,0.90
2022-09-03T17:00:12.550Z,0.90
2022-09-03T17:03:13.798Z,0.90
2022-09-03T17:06:12.752Z,0.60
2022-09-03T17:08:50.870Z,0.63
2022-09-03T17:11:37.975Z,0.90
2022-09-03T17:14:39.620Z,0.70
2022-09-03T17:17:18.209Z,0.93
2022-09-03T17:19:54.945Z,1.13
2022-09-03T17:22:40.616Z,0.90
2022-09-03T17:25:21.153Z,0.90
2022-09-03T17:27:53.351Z,0.90
2022-09-03T17:30:30.829Z,1.00
2022-09-03T17:33:35.131Z,0.90
2022-09-03T17:36:18.073Z,0.80
2022-09-03T17:39:27.833Z,0.87
2022-09-03T17:42:01.989Z,1.30
2022-09-03T17:44:44.513Z,0.90
2022-09-03T17:47:43.372Z,0.93
2022-09-03T17:50:19.345Z,0.90
2022-09-03T17:52:51.332Z,0.73
2022-09-03T17:55:30.427Z,0.80
2022-09-03T17:58:05.217Z,0.90
2022-09-03T18:00:39.505Z,0.97
2022-09-03T18:03:14.853Z,1.00
2022-09-03T18:05:47.562Z,1.00
2022-09-03T18:08:23.237Z,1.20
2022-09-03T18:11:03.369Z,0.80
2022-09-03T18:13:46.825Z,0.90
2022-09-03T18:16:20.778Z,1.30
2022-09-03T18:18:52.408Z,1.00
2022-09-03T18:21:42.073Z,1.40
2022-09-03T18:24:50.935Z,1.13
2022-09-03T18:27:40.030Z,1.00
2022-09-03T18:30:28.276Z,1.30
2022-09-03T18:33:15.129Z,1.00
2022-09-03T18:36:03.081Z,1.30
2022-09-03T18:38:51.298Z,1.10
2022-09-03T18:41:59.364Z,1.40
2022-09-03T18:45:12.253Z,1.40
2022-09-03T18:48:19.570Z,1.40
2022-09-03T18:51:12.638Z,1.80
2022-09-03T18:54:06.322Z,1.53
2022-09-03T18:56:58.985Z,1.47
2022-09-03T19:00:13.815Z,1.50
2022-09-03T19:03:11.789Z,1.50
2022-09-03T19:06:14.377Z,2.43
2022-09-03T19:09:09.622Z,2.17
2022-09-03T19:12:10.346Z,1.97
2022-09-03T19:15:12.366Z,1.73
2022-09-03T19:18:15.381Z,1.73
2022-09-03T19:21:08.029Z,1.40
2022-09-03T19:23:54.335Z,1.10
2022-09-03T19:26:50.355Z,1.10
2022-09-03T19:29:52.337Z,1.13
2022-09-03T19:32:42.325Z,1.10
2022-09-03T19:35:36.506Z,1.00
2022-09-03T19:38:32.815Z,1.27
2022-09-03T19:41:31.030Z,1.13
2022-09-03T19:44:38.652Z,1.10
2022-09-03T19:47:27.945Z,1.00
2022-09-03T19:50:22.661Z,1.10
2022-09-03T19:53:13.064Z,1.00
2022-09-03T19:56:07.385Z,1.03
2022-09-03T19:58:57.447Z,1.33
2022-09-03T20:01:52.151Z,1.10
2022-09-03T20:04:43.809Z,1.17
2022-09-03T20:07:30.164Z,1.10
2022-09-03T20:10:23.932Z,1.00
2022-09-03T20:13:02.114Z,1.10
2022-09-03T20:15:44.615Z,1.00
2022-09-03T20:18:23.080Z,1.20
2022-09-03T20:21:03.620Z,1.10
2022-09-03T20:23:37.458Z,1.20
2022-09-03T20:26:17.675Z,1.10
2022-09-03T20:29:08.823Z,1.00
2022-09-03T20:31:48.103Z,1.00
2022-09-03T20:34:33.502Z,1.00
2022-09-03T20:37:14.991Z,0.87
2022-09-03T20:39:54.092Z,1.07
2022-09-03T20:42:41.905Z,1.30
2022-09-03T20:45:18.504Z,1.07
2022-09-03T20:48:14.862Z,1.00
2022-09-03T20:50:51.192Z,0.90
2022-09-03T20:53:50.777Z,1.00
2022-09-03T20:56:26.623Z,1.07
2022-09-03T20:59:01.298Z,1.00
2022-09-03T21:01:39.203Z,1.03
2022-09-03T21:04:20.305Z,1.10
2022-09-03T21:07:00.542Z,1.10
2022-09-03T21:09:39.199Z,0.80
2022-09-03T21:12:15.769Z,1.30
2022-09-03T21:14:50.667Z,1.03
2022-09-03T21:17:36.025Z,0.90
2022-09-03T21:20:22.626Z,1.30
2022-09-03T21:23:07.309Z,1.00
2022-09-03T21:25:41.153Z,1.07
2022-09-03T21:28:15.454Z,1.17
2022-09-03T21:30:49.715Z,1.10
2022-09-03T21:33:22.177Z,1.10
2022-09-03T21:35:55.510Z,1.23
2022-09-03T21:38:27.356Z,1.00
2022-09-03T21:41:03.821Z,1.00
2022-09-03T21:43:36.416Z,1.40
2022-09-03T21:46:10.480Z,1.07
2022-09-03T21:48:45.525Z,1.10
2022-09-03T21:51:20.037Z,1.10
2022-09-03T21:53:54.414Z,1.40
2022-09-03T21:56:48.442Z,1.03
2022-09-03T21:59:31.362Z,0.90
2022-09-03T22:02:08.293Z,1.10
2022-09-03T22:04:36.974Z,1.00
2022-09-03T22:07:15.354Z,1.07
2022-09-03T22:09:51.473Z,0.87
2022-09-03T22:12:26.511Z,1.27
2022-09-03T22:14:56.645Z,1.10
2022-09-03T22:17:34.740Z,1.10
2022-09-03T22:20:05.494Z,1.60
2022-09-03T22:22:43.933Z,1.20
2022-09-03T22:25:17.787Z,1.20
2022-09-03T22:27:54.414Z,1.10
2022-09-03T22:30:22.991Z,1.00
2022-09-03T22:33:03.849Z,1.17
2022-09-03T22:35:46.917Z,1.10
2022-09-03T22:38:42.412Z,1.13
2022-09-03T22:41:24.008Z,1.10
2022-09-03T22:44:03.013Z,1.10
2022-09-03T22:46:41.296Z,0.93
2022-09-03T22:49:29.571Z,1.20
2022-09-03T22:52:11.686Z,1.17
2022-09-03T22:54:52.881Z,1.27
2022-09-03T22:57:25.363Z,1.10
2022-09-03T22:59:59.840Z,1.33
2022-09-03T23:02:29.704Z,1.30
2022-09-03T23:05:06.770Z,1.30
2022-09-03T23:07:47.191Z,1.10
2022-09-03T23:10:24.312Z,1.20
2022-09-03T23:13:04.893Z,1.30
2022-09-03T23:15:39.109Z,1.17
2022-09-03T23:18:17.721Z,1.40
2022-09-03T23:20:55.382Z,1.00
2022-09-03T23:23:30.989Z,1.30
2022-09-03T23:26:13.561Z,1.30
2022-09-03T23:28:46.650Z,1.60
2022-09-03T23:31:21.295Z,1.20
2022-09-03T23:33:52.365Z,1.20
2022-09-03T23:36:57.857Z,1.50
2022-09-03T23:39:41.858Z,1.13
2022-09-03T23:42:20.237Z,1.17
2022-09-03T23:45:07.303Z,1.30
2022-09-03T23:47:45.929Z,1.13
2022-09-03T23:50:30.525Z,1.30
2022-09-03T23:53:19.642Z,1.20
2022-09-03T23:56:01.704Z,1.40
2022-09-03T23:58:39.045Z,1.60
